»·PEaware :: SKW1187 KSAN-KPHX

SKW1187 :: KSAN-KPHX

FLIGHT INFORMATION

Flight Status: Arrived
Operator:
SkyWest Airlines
More flights by this operator :: More flights under this callsign
Pilot: Anonymous 12254 (12254)
Aircraft: CANADAIR CL-600 CRJ-200
(CRJ2)
More flights by this aircraft type
Origin: KSAN San Diego Intl-Lindbergh
United States
Destination: KPHX Phoenix Sky Harbor Intl
United States
More flights between these airports :: More routes between these airports
Route: +ZZOOO2 IPL J18 BZA HOGGZ HYDRR1
File this flight plan on PilotEdge
Remarks:
Altitude:
(Current/Filed)
27,000ft
Speed:
(Current/Filed)
420kts
Departed: 14-Jul-19 01:06 PM
Arrived: 14-Jul-19 02:04 PM
Distance/Time
Traveled:
265nm/0:58
Distance/Time
To Go:
Arrived

Flight Plot

Page will automatically refresh every two minutes.

Flight plan parsing failed; only flown route is shown


Map Options




Map Legend


Flown Route
Filed Route
Departure Airport
Arrival Airport
Navaid (VOR, NDB)
Fix

Horizontal Profiles

Position Reports

Time Latitude Longitude Heading Altitude Ground
Speed
14-Jul-19 12:34 32.732344 -117.202831 203 15ft 0kts
14-Jul-19 12:35 32.732344 -117.202831 203 15ft 0kts
14-Jul-19 12:36 32.732344 -117.202831 203 15ft 0kts
14-Jul-19 12:37 32.732344 -117.202831 203 15ft 0kts
14-Jul-19 12:38 32.732344 -117.202831 203 15ft 0kts
14-Jul-19 12:39 32.732344 -117.202831 203 15ft 0kts
14-Jul-19 12:40 32.732344 -117.202831 203 15ft 0kts
14-Jul-19 12:41 32.732344 -117.202831 203 15ft 0kts
14-Jul-19 12:42 32.732344 -117.202831 203 15ft 0kts
14-Jul-19 12:43 32.732344 -117.202831 203 15ft 0kts
14-Jul-19 12:44 32.732344 -117.202831 203 15ft 0kts
14-Jul-19 12:45 32.732344 -117.202831 203 15ft 0kts
14-Jul-19 12:46 32.732344 -117.202831 203 15ft 0kts
14-Jul-19 12:47 32.732344 -117.202831 203 15ft 0kts
14-Jul-19 12:48 32.732344 -117.202831 203 15ft 0kts
14-Jul-19 12:49 32.732344 -117.202831 203 15ft 0kts
14-Jul-19 12:50 32.732344 -117.202831 203 15ft 0kts
14-Jul-19 12:51 32.732344 -117.202831 203 15ft 0kts
14-Jul-19 12:52 32.732315 -117.202869 240 15ft 0kts
14-Jul-19 12:53 32.732389 -117.202968 7 15ft 0kts
14-Jul-19 12:54 32.732650 -117.202911 10 15ft 1kts
14-Jul-19 12:55 32.733110 -117.202793 13 15ft 2kts
14-Jul-19 12:56 32.733776 -117.202783 358 15ft 2kts
14-Jul-19 12:57 32.734304 -117.202632 18 15ft 0kts
14-Jul-19 12:58 32.734370 -117.202606 18 15ft 0kts
14-Jul-19 12:59 32.734394 -117.202597 17 15ft 1kts
14-Jul-19 13:00 32.735405 -117.201590 104 15ft 10kts
14-Jul-19 13:01 32.734195 -117.196556 106 15ft 20kts
14-Jul-19 13:02 32.732310 -117.188730 105 16ft 30kts
14-Jul-19 13:03 32.730294 -117.180459 106 15ft 15kts
14-Jul-19 13:04 32.729532 -117.176541 75 20ft 13kts
14-Jul-19 13:05 32.737391 -117.205848 285 337ft 209kts
14-Jul-19 13:06 32.754261 -117.276352 279 2707ft 238kts
14-Jul-19 13:07 32.710208 -117.313041 151 5605ft 245kts
14-Jul-19 13:08 32.654035 -117.264926 144 8316ft 255kts
14-Jul-19 13:09 32.627385 -117.189320 97 10806ft 265kts
14-Jul-19 13:10 32.618647 -117.101128 96 13140ft 275kts
14-Jul-19 13:11 32.609782 -117.003642 96 14275ft 318kts
14-Jul-19 13:12 32.606427 -116.897450 77 15927ft 334kts
14-Jul-19 13:13 32.627696 -116.786102 77 17408ft 351kts
14-Jul-19 13:14 32.640341 -116.669897 83 19007ft 359kts
14-Jul-19 13:15 32.651986 -116.550677 83 20491ft 368kts
14-Jul-19 13:16 32.663749 -116.428700 83 21864ft 376kts
14-Jul-19 13:17 32.675678 -116.303658 83 23141ft 383kts
14-Jul-19 13:18 32.687628 -116.177034 83 24318ft 390kts
14-Jul-19 13:19 32.699714 -116.047713 83 25413ft 397kts
14-Jul-19 13:20 32.711892 -115.916401 83 26430ft 403kts
14-Jul-19 13:21 32.724161 -115.782675 83 26945ft 413kts
14-Jul-19 13:22 32.736474 -115.646850 83 26945ft 413kts
14-Jul-19 13:23 32.748505 -115.510911 86 26944ft 413kts
14-Jul-19 13:24 32.752102 -115.375001 88 26945ft 413kts
14-Jul-19 13:25 32.755272 -115.238613 88 26944ft 412kts
14-Jul-19 13:26 32.758319 -115.101416 88 26945ft 412kts
14-Jul-19 13:27 32.761187 -114.965139 88 26945ft 412kts
14-Jul-19 13:28 32.763906 -114.829051 88 26945ft 412kts
14-Jul-19 13:29 32.766480 -114.692923 88 26927ft 412kts
14-Jul-19 13:30 32.768746 -114.558067 88 26386ft 403kts
14-Jul-19 13:31 32.770575 -114.426531 88 25878ft 394kts
14-Jul-19 13:32 32.772251 -114.297045 89 25372ft 389kts
14-Jul-19 13:33 32.773774 -114.168295 89 24947ft 388kts
14-Jul-19 13:34 32.778329 -114.040461 83 24951ft 392kts
14-Jul-19 13:35 32.792509 -113.909162 82 24945ft 404kts
14-Jul-19 13:36 32.806990 -113.776302 82 24944ft 406kts
14-Jul-19 13:37 32.844371 -113.653307 50 24575ft 402kts
14-Jul-19 13:38 32.916547 -113.553942 48 23762ft 390kts
14-Jul-19 13:39 32.987354 -113.458380 48 22672ft 382kts
14-Jul-19 13:40 33.056520 -113.364872 48 21361ft 367kts
14-Jul-19 13:41 33.123058 -113.274928 48 19919ft 357kts
14-Jul-19 13:42 33.187954 -113.186997 48 18163ft 348kts
14-Jul-19 13:43 33.250476 -113.102050 48 16651ft 334kts
14-Jul-19 13:44 33.275233 -113.000507 86 15164ft 322kts
14-Jul-19 13:45 33.278666 -112.894792 88 13663ft 316kts
14-Jul-19 13:46 33.283318 -112.793093 83 13051ft 288kts
14-Jul-19 13:47 33.292155 -112.698104 83 12638ft 295kts
14-Jul-19 13:48 33.301541 -112.597552 83 12160ft 312kts
14-Jul-19 13:49 33.311174 -112.493515 83 11663ft 308kts
14-Jul-19 13:50 33.319726 -112.399976 83 12108ft 232kts
14-Jul-19 13:51 33.326473 -112.326387 84 11099ft 221kts
14-Jul-19 13:52 33.333341 -112.250995 84 10128ft 234kts
14-Jul-19 13:53 33.340462 -112.172283 84 9150ft 241kts
14-Jul-19 13:54 33.347166 -112.094341 89 8536ft 232kts
14-Jul-19 13:55 33.346608 -112.017610 90 7803ft 230kts
14-Jul-19 13:56 33.345659 -111.940325 90 6932ft 235kts
14-Jul-19 13:57 33.345375 -111.863343 89 5930ft 228kts
14-Jul-19 13:58 33.385023 -111.822731 0 4919ft 216kts
14-Jul-19 13:59 33.439609 -111.828952 311 4268ft 171kts
14-Jul-19 14:00 33.442236 -111.881849 262 3553ft 158kts
14-Jul-19 14:01 33.440710 -111.933903 269 2310ft 156kts
14-Jul-19 14:02 33.440821 -111.981036 270 1369ft 138kts
14-Jul-19 14:03 33.440631 -112.010332 241 1124ft 30kts
14-Jul-19 14:04 33.439548 -112.011188 203 1124ft 13kts
14-Jul-19 14:05 33.437572 -112.010022 134 1124ft 2kts
14-Jul-19 14:06 33.437344 -112.009368 106 1124ft 0kts
14-Jul-19 14:07 33.440823 -111.981269 270 1367ft 137kts
14-Jul-19 14:08 33.440834 -111.993402 269 1137ft 136kts

Navigation Log

Ident Type
Flight plan parsing failed, navigation log unavailable